sensor_id;sensor_type;location;lat;lon;timestamp;temperature;humidity
314;DHT22;143;51.634;7.112;2024-02-04T00:01:49;10.70;1.00
314;DHT22;143;51.634;7.112;2024-02-04T00:04:15;10.90;1.00
314;DHT22;143;51.634;7.112;2024-02-04T00:06:40;10.70;1.00
314;DHT22;143;51.634;7.112;2024-02-04T00:09:06;10.70;1.00
314;DHT22;143;51.634;7.112;2024-02-04T00:11:32;10.70;1.00
314;DHT22;143;51.634;7.112;2024-02-04T00:13:57;10.90;1.00
314;DHT22;143;51.634;7.112;2024-02-04T00:16:23;10.70;1.00
314;DHT22;143;51.634;7.112;2024-02-04T00:18:48;10.70;1.00
314;DHT22;143;51.634;7.112;2024-02-04T00:21:14;10.60;1.00
314;DHT22;143;51.634;7.112;2024-02-04T00:23:39;10.60;1.00
314;DHT22;143;51.634;7.112;2024-02-04T00:26:05;10.60;1.00
314;DHT22;143;51.634;7.112;2024-02-04T00:28:30;10.90;1.00
314;DHT22;143;51.634;7.112;2024-02-04T00:30:56;10.70;1.00
314;DHT22;143;51.634;7.112;2024-02-04T00:33:24;10.50;1.00
314;DHT22;143;51.634;7.112;2024-02-04T00:35:50;10.60;1.00
314;DHT22;143;51.634;7.112;2024-02-04T00:38:15;10.60;1.00
314;DHT22;143;51.634;7.112;2024-02-04T00:40:41;10.60;1.00
314;DHT22;143;51.634;7.112;2024-02-04T00:43:06;10.60;1.00
314;DHT22;143;51.634;7.112;2024-02-04T00:45:32;10.60;1.00
314;DHT22;143;51.634;7.112;2024-02-04T00:47:57;10.50;1.00
314;DHT22;143;51.634;7.112;2024-02-04T00:50:23;10.60;1.00
314;DHT22;143;51.634;7.112;2024-02-04T00:52:49;10.60;1.00
314;DHT22;143;51.634;7.112;2024-02-04T00:55:14;10.60;1.00
314;DHT22;143;51.634;7.112;2024-02-04T00:57:40;10.60;1.00
314;DHT22;143;51.634;7.112;2024-02-04T01:00:06;10.60;1.00
314;DHT22;143;51.634;7.112;2024-02-04T01:02:33;10.60;1.00
314;DHT22;143;51.634;7.112;2024-02-04T01:04:59;10.40;1.00
314;DHT22;143;51.634;7.112;2024-02-04T01:07:25;10.60;1.00
314;DHT22;143;51.634;7.112;2024-02-04T01:09:50;10.50;1.00
314;DHT22;143;51.634;7.112;2024-02-04T01:12:16;10.50;1.00
314;DHT22;143;51.634;7.112;2024-02-04T01:14:41;10.60;1.00
314;DHT22;143;51.634;7.112;2024-02-04T01:17:07;10.40;1.00
314;DHT22;143;51.634;7.112;2024-02-04T01:19:33;10.50;1.00
314;DHT22;143;51.634;7.112;2024-02-04T01:21:58;10.70;1.00
314;DHT22;143;51.634;7.112;2024-02-04T01:24:24;10.40;1.00
314;DHT22;143;51.634;7.112;2024-02-04T01:26:50;10.40;1.00
314;DHT22;143;51.634;7.112;2024-02-04T01:29:16;10.60;1.00
314;DHT22;143;51.634;7.112;2024-02-04T01:31:41;10.60;1.00
314;DHT22;143;51.634;7.112;2024-02-04T01:34:07;10.40;1.00
314;DHT22;143;51.634;7.112;2024-02-04T01:36:33;10.40;1.00
314;DHT22;143;51.634;7.112;2024-02-04T01:38:58;10.60;1.00
314;DHT22;143;51.634;7.112;2024-02-04T01:41:24;10.40;1.00
314;DHT22;143;51.634;7.112;2024-02-04T01:43:53;10.30;1.00
314;DHT22;143;51.634;7.112;2024-02-04T01:46:18;10.40;1.00
314;DHT22;143;51.634;7.112;2024-02-04T01:48:44;10.60;1.00
314;DHT22;143;51.634;7.112;2024-02-04T01:51:10;10.60;1.00
314;DHT22;143;51.634;7.112;2024-02-04T01:53:36;10.50;1.00
314;DHT22;143;51.634;7.112;2024-02-04T01:56:04;10.30;1.00
314;DHT22;143;51.634;7.112;2024-02-04T01:58:30;10.50;1.00
314;DHT22;143;51.634;7.112;2024-02-04T02:00:56;10.30;1.00
314;DHT22;143;51.634;7.112;2024-02-04T02:03:22;10.30;1.00
314;DHT22;143;51.634;7.112;2024-02-04T02:05:48;10.30;1.00
314;DHT22;143;51.634;7.112;2024-02-04T02:08:15;10.30;1.00
314;DHT22;143;51.634;7.112;2024-02-04T02:10:40;10.40;1.00
314;DHT22;143;51.634;7.112;2024-02-04T02:13:16;10.40;1.00
314;DHT22;143;51.634;7.112;2024-02-04T02:15:49;10.60;1.00
314;DHT22;143;51.634;7.112;2024-02-04T02:18:27;10.50;1.00
314;DHT22;143;51.634;7.112;2024-02-04T02:23:31;10.40;1.00
314;DHT22;143;51.634;7.112;2024-02-04T02:25:59;10.30;1.00
314;DHT22;143;51.634;7.112;2024-02-04T02:28:25;10.40;1.00
314;DHT22;143;51.634;7.112;2024-02-04T02:30:51;10.40;1.00
314;DHT22;143;51.634;7.112;2024-02-04T02:33:17;10.40;1.00
314;DHT22;143;51.634;7.112;2024-02-04T02:35:44;10.60;1.00
314;DHT22;143;51.634;7.112;2024-02-04T02:41:06;10.50;1.00
314;DHT22;143;51.634;7.112;2024-02-04T02:43:34;10.40;1.00
314;DHT22;143;51.634;7.112;2024-02-04T02:46:01;10.50;1.00
314;DHT22;143;51.634;7.112;2024-02-04T02:48:27;10.50;1.00
314;DHT22;143;51.634;7.112;2024-02-04T02:50:53;10.40;1.00
314;DHT22;143;51.634;7.112;2024-02-04T02:53:19;10.50;1.00
314;DHT22;143;51.634;7.112;2024-02-04T02:55:45;10.50;1.00
314;DHT22;143;51.634;7.112;2024-02-04T02:58:12;10.50;1.00
314;DHT22;143;51.634;7.112;2024-02-04T03:00:38;10.60;1.00
314;DHT22;143;51.634;7.112;2024-02-04T03:03:03;10.50;1.00
314;DHT22;143;51.634;7.112;2024-02-04T03:05:29;10.50;1.00
314;DHT22;143;51.634;7.112;2024-02-04T03:07:55;10.50;1.00
314;DHT22;143;51.634;7.112;2024-02-04T03:10:20;10.60;1.00
314;DHT22;143;51.634;7.112;2024-02-04T03:12:46;10.60;1.00
314;DHT22;143;51.634;7.112;2024-02-04T03:15:11;10.60;1.00
314;DHT22;143;51.634;7.112;2024-02-04T03:17:37;10.60;1.00
314;DHT22;143;51.634;7.112;2024-02-04T03:20:02;10.50;1.00
314;DHT22;143;51.634;7.112;2024-02-04T03:22:28;10.60;1.00
314;DHT22;143;51.634;7.112;2024-02-04T03:24:54;10.80;1.00
314;DHT22;143;51.634;7.112;2024-02-04T03:27:20;10.60;1.00
314;DHT22;143;51.634;7.112;2024-02-04T03:29:46;10.60;1.00
314;DHT22;143;51.634;7.112;2024-02-04T03:32:11;10.60;1.00
314;DHT22;143;51.634;7.112;2024-02-04T03:34:37;10.70;1.00
314;DHT22;143;51.634;7.112;2024-02-04T03:37:04;10.60;1.00
314;DHT22;143;51.634;7.112;2024-02-04T03:39:30;10.70;1.00
314;DHT22;143;51.634;7.112;2024-02-04T03:41:56;10.50;1.00
314;DHT22;143;51.634;7.112;2024-02-04T03:44:21;10.60;1.00
314;DHT22;143;51.634;7.112;2024-02-04T03:46:48;10.60;1.00
314;DHT22;143;51.634;7.112;2024-02-04T03:49:14;10.60;1.00
314;DHT22;143;51.634;7.112;2024-02-04T03:51:40;10.60;1.00
314;DHT22;143;51.634;7.112;2024-02-04T03:54:05;10.60;1.00
314;DHT22;143;51.634;7.112;2024-02-04T03:56:31;10.60;1.00
314;DHT22;143;51.634;7.112;2024-02-04T03:58:56;10.60;1.00
314;DHT22;143;51.634;7.112;2024-02-04T04:01:22;10.60;1.00
314;DHT22;143;51.634;7.112;2024-02-04T04:03:47;10.60;1.00
314;DHT22;143;51.634;7.112;2024-02-04T04:06:13;10.50;1.00
314;DHT22;143;51.634;7.112;2024-02-04T04:08:38;10.60;1.00
314;DHT22;143;51.634;7.112;2024-02-04T04:11:04;10.60;1.00
314;DHT22;143;51.634;7.112;2024-02-04T04:13:30;10.70;1.00
314;DHT22;143;51.634;7.112;2024-02-04T04:15:57;10.60;1.00
314;DHT22;143;51.634;7.112;2024-02-04T04:18:23;10.50;1.00
314;DHT22;143;51.634;7.112;2024-02-04T04:20:48;10.60;1.00
314;DHT22;143;51.634;7.112;2024-02-04T04:23:14;10.60;1.00
314;DHT22;143;51.634;7.112;2024-02-04T04:25:39;10.50;1.00
314;DHT22;143;51.634;7.112;2024-02-04T04:28:05;10.50;1.00
314;DHT22;143;51.634;7.112;2024-02-04T04:30:30;10.50;1.00
314;DHT22;143;51.634;7.112;2024-02-04T04:32:56;10.50;1.00
314;DHT22;143;51.634;7.112;2024-02-04T04:35:24;10.60;1.00
314;DHT22;143;51.634;7.112;2024-02-04T04:37:49;10.60;1.00
314;DHT22;143;51.634;7.112;2024-02-04T04:40:15;10.80;1.00
314;DHT22;143;51.634;7.112;2024-02-04T04:42:40;10.60;1.00
314;DHT22;143;51.634;7.112;2024-02-04T04:45:07;10.60;1.00
314;DHT22;143;51.634;7.112;2024-02-04T04:47:34;10.60;1.00
314;DHT22;143;51.634;7.112;2024-02-04T04:49:59;10.60;1.00
314;DHT22;143;51.634;7.112;2024-02-04T04:52:25;10.60;1.00
314;DHT22;143;51.634;7.112;2024-02-04T04:54:50;10.60;1.00
314;DHT22;143;51.634;7.112;2024-02-04T04:57:16;10.60;1.00
314;DHT22;143;51.634;7.112;2024-02-04T04:59:43;10.60;1.00
314;DHT22;143;51.634;7.112;2024-02-04T05:02:08;10.70;1.00
314;DHT22;143;51.634;7.112;2024-02-04T05:04:36;10.60;1.00
314;DHT22;143;51.634;7.112;2024-02-04T05:07:01;10.70;1.00
314;DHT22;143;51.634;7.112;2024-02-04T05:09:27;10.60;1.00
314;DHT22;143;51.634;7.112;2024-02-04T05:11:52;10.60;1.00
314;DHT22;143;51.634;7.112;2024-02-04T05:14:18;10.60;1.00
314;DHT22;143;51.634;7.112;2024-02-04T05:16:44;10.60;1.00
314;DHT22;143;51.634;7.112;2024-02-04T05:19:10;10.60;1.00
314;DHT22;143;51.634;7.112;2024-02-04T05:21:40;10.60;1.00
314;DHT22;143;51.634;7.112;2024-02-04T05:24:06;10.80;1.00
314;DHT22;143;51.634;7.112;2024-02-04T05:26:31;10.60;1.00
314;DHT22;143;51.634;7.112;2024-02-04T05:28:57;10.60;1.00
314;DHT22;143;51.634;7.112;2024-02-04T05:31:22;10.60;1.00
314;DHT22;143;51.634;7.112;2024-02-04T05:33:48;10.60;1.00
314;DHT22;143;51.634;7.112;2024-02-04T05:36:13;10.50;1.00
314;DHT22;143;51.634;7.112;2024-02-04T05:38:42;10.50;1.00
314;DHT22;143;51.634;7.112;2024-02-04T05:41:08;10.60;1.00
314;DHT22;143;51.634;7.112;2024-02-04T05:43:33;10.40;1.00
314;DHT22;143;51.634;7.112;2024-02-04T05:45:59;10.50;1.00
314;DHT22;143;51.634;7.112;2024-02-04T05:48:24;10.70;1.00
314;DHT22;143;51.634;7.112;2024-02-04T05:50:50;10.50;1.00
314;DHT22;143;51.634;7.112;2024-02-04T05:53:15;10.50;1.00
314;DHT22;143;51.634;7.112;2024-02-04T05:55:41;10.50;1.00
314;DHT22;143;51.634;7.112;2024-02-04T05:58:06;10.50;1.00
314;DHT22;143;51.634;7.112;2024-02-04T06:00:32;10.50;1.00
314;DHT22;143;51.634;7.112;2024-02-04T06:02:57;10.50;1.00
314;DHT22;143;51.634;7.112;2024-02-04T06:05:23;10.50;1.00
314;DHT22;143;51.634;7.112;2024-02-04T06:07:48;10.60;1.00
314;DHT22;143;51.634;7.112;2024-02-04T06:10:14;10.50;1.00
314;DHT22;143;51.634;7.112;2024-02-04T06:12:40;10.40;1.00
314;DHT22;143;51.634;7.112;2024-02-04T06:15:12;10.10;1.00
314;DHT22;143;51.634;7.112;2024-02-04T06:17:39;10.30;1.00
314;DHT22;143;51.634;7.112;2024-02-04T06:20:04;10.20;1.00
314;DHT22;143;51.634;7.112;2024-02-04T06:22:30;10.30;1.00
314;DHT22;143;51.634;7.112;2024-02-04T06:24:56;10.30;1.00
314;DHT22;143;51.634;7.112;2024-02-04T06:27:21;10.30;1.00
314;DHT22;143;51.634;7.112;2024-02-04T06:29:47;10.30;1.00
314;DHT22;143;51.634;7.112;2024-02-04T06:32:12;10.40;1.00
314;DHT22;143;51.634;7.112;2024-02-04T06:34:39;10.40;1.00
314;DHT22;143;51.634;7.112;2024-02-04T06:37:04;10.30;1.00
314;DHT22;143;51.634;7.112;2024-02-04T06:39:30;10.40;1.00
314;DHT22;143;51.634;7.112;2024-02-04T06:41:55;10.50;1.00
314;DHT22;143;51.634;7.112;2024-02-04T06:44:21;10.40;1.00
314;DHT22;143;51.634;7.112;2024-02-04T06:46:46;10.40;1.00
314;DHT22;143;51.634;7.112;2024-02-04T06:49:13;10.30;1.00
314;DHT22;143;51.634;7.112;2024-02-04T06:51:43;10.40;1.00
314;DHT22;143;51.634;7.112;2024-02-04T06:54:10;10.40;1.00
314;DHT22;143;51.634;7.112;2024-02-04T06:56:35;10.40;1.00
314;DHT22;143;51.634;7.112;2024-02-04T06:59:02;10.30;1.00
314;DHT22;143;51.634;7.112;2024-02-04T07:01:27;10.50;1.00
314;DHT22;143;51.634;7.112;2024-02-04T07:03:53;10.30;1.00
314;DHT22;143;51.634;7.112;2024-02-04T07:06:18;10.40;1.00
314;DHT22;143;51.634;7.112;2024-02-04T07:08:44;10.30;1.00
314;DHT22;143;51.634;7.112;2024-02-04T07:11:09;10.50;1.00
314;DHT22;143;51.634;7.112;2024-02-04T07:13:35;10.30;1.00
314;DHT22;143;51.634;7.112;2024-02-04T07:16:00;10.50;1.00
314;DHT22;143;51.634;7.112;2024-02-04T07:18:26;10.60;1.00
314;DHT22;143;51.634;7.112;2024-02-04T07:20:52;10.30;1.00
314;DHT22;143;51.634;7.112;2024-02-04T07:23:17;10.30;1.00
314;DHT22;143;51.634;7.112;2024-02-04T07:25:43;10.30;1.00
314;DHT22;143;51.634;7.112;2024-02-04T07:28:08;10.30;1.00
314;DHT22;143;51.634;7.112;2024-02-04T07:30:34;10.40;1.00
314;DHT22;143;51.634;7.112;2024-02-04T07:32:59;10.50;1.00
314;DHT22;143;51.634;7.112;2024-02-04T07:35:25;10.40;1.00
314;DHT22;143;51.634;7.112;2024-02-04T07:37:50;10.40;1.00
314;DHT22;143;51.634;7.112;2024-02-04T07:40:16;10.60;1.00
314;DHT22;143;51.634;7.112;2024-02-04T07:42:42;10.20;1.00
314;DHT22;143;51.634;7.112;2024-02-04T07:45:08;10.40;1.00
314;DHT22;143;51.634;7.112;2024-02-04T07:47:36;10.40;1.00
314;DHT22;143;51.634;7.112;2024-02-04T07:50:02;10.40;1.00
314;DHT22;143;51.634;7.112;2024-02-04T07:52:28;10.50;1.00
314;DHT22;143;51.634;7.112;2024-02-04T07:54:53;10.60;1.00
314;DHT22;143;51.634;7.112;2024-02-04T07:57:19;10.70;1.00
314;DHT22;143;51.634;7.112;2024-02-04T07:59:45;10.50;1.00
314;DHT22;143;51.634;7.112;2024-02-04T08:02:11;10.50;1.00
314;DHT22;143;51.634;7.112;2024-02-04T08:04:40;10.40;1.00
314;DHT22;143;51.634;7.112;2024-02-04T08:07:05;10.50;1.00
314;DHT22;143;51.634;7.112;2024-02-04T08:09:31;10.60;1.00
314;DHT22;143;51.634;7.112;2024-02-04T08:11:56;10.40;1.00
314;DHT22;143;51.634;7.112;2024-02-04T08:14:22;10.50;1.00
314;DHT22;143;51.634;7.112;2024-02-04T08:16:47;10.40;1.00
314;DHT22;143;51.634;7.112;2024-02-04T08:19:13;10.40;1.00
314;DHT22;143;51.634;7.112;2024-02-04T08:21:39;10.40;1.00
314;DHT22;143;51.634;7.112;2024-02-04T08:24:05;10.30;1.00
314;DHT22;143;51.634;7.112;2024-02-04T08:26:31;10.40;1.00
314;DHT22;143;51.634;7.112;2024-02-04T08:28:56;10.50;1.00
314;DHT22;143;51.634;7.112;2024-02-04T08:31:22;10.50;1.00
314;DHT22;143;51.634;7.112;2024-02-04T08:33:47;10.50;1.00
314;DHT22;143;51.634;7.112;2024-02-04T08:36:13;10.50;1.00
314;DHT22;143;51.634;7.112;2024-02-04T08:38:38;10.50;1.00
314;DHT22;143;51.634;7.112;2024-02-04T08:41:04;10.50;1.00
314;DHT22;143;51.634;7.112;2024-02-04T08:43:30;10.60;1.00
314;DHT22;143;51.634;7.112;2024-02-04T08:45:55;10.50;1.00
314;DHT22;143;51.634;7.112;2024-02-04T08:48:21;10.50;1.00
314;DHT22;143;51.634;7.112;2024-02-04T08:50:46;10.50;1.00
314;DHT22;143;51.634;7.112;2024-02-04T08:53:12;10.50;1.00
314;DHT22;143;51.634;7.112;2024-02-04T08:55:37;10.50;1.00
314;DHT22;143;51.634;7.112;2024-02-04T08:58:03;10.40;1.00
314;DHT22;143;51.634;7.112;2024-02-04T09:00:29;10.50;1.00
314;DHT22;143;51.634;7.112;2024-02-04T09:02:54;10.70;1.00
314;DHT22;143;51.634;7.112;2024-02-04T09:05:21;10.60;1.00
314;DHT22;143;51.634;7.112;2024-02-04T09:07:46;10.50;1.00
314;DHT22;143;51.634;7.112;2024-02-04T09:10:12;10.50;1.00
314;DHT22;143;51.634;7.112;2024-02-04T09:12:38;10.60;1.00
314;DHT22;143;51.634;7.112;2024-02-04T09:15:04;10.50;1.00
314;DHT22;143;51.634;7.112;2024-02-04T09:17:30;10.50;1.00
314;DHT22;143;51.634;7.112;2024-02-04T09:19:57;10.50;1.00
314;DHT22;143;51.634;7.112;2024-02-04T09:22:22;10.60;1.00
314;DHT22;143;51.634;7.112;2024-02-04T09:24:48;10.50;1.00
314;DHT22;143;51.634;7.112;2024-02-04T09:27:14;10.50;1.00
314;DHT22;143;51.634;7.112;2024-02-04T09:29:39;10.50;1.00
314;DHT22;143;51.634;7.112;2024-02-04T09:32:05;10.60;1.00
314;DHT22;143;51.634;7.112;2024-02-04T09:34:31;10.40;1.00
314;DHT22;143;51.634;7.112;2024-02-04T09:36:56;10.60;1.00
314;DHT22;143;51.634;7.112;2024-02-04T09:39:22;10.50;1.00
314;DHT22;143;51.634;7.112;2024-02-04T09:41:47;10.60;1.00
314;DHT22;143;51.634;7.112;2024-02-04T09:44:13;10.30;1.00
314;DHT22;143;51.634;7.112;2024-02-04T09:46:39;10.30;1.00
314;DHT22;143;51.634;7.112;2024-02-04T09:49:05;10.30;1.00
314;DHT22;143;51.634;7.112;2024-02-04T09:51:31;10.10;1.00
314;DHT22;143;51.634;7.112;2024-02-04T09:53:58;10.20;1.00
314;DHT22;143;51.634;7.112;2024-02-04T09:56:26;10.20;1.00
314;DHT22;143;51.634;7.112;2024-02-04T09:58:52;10.10;1.00
314;DHT22;143;51.634;7.112;2024-02-04T10:01:19;10.10;1.00
314;DHT22;143;51.634;7.112;2024-02-04T10:03:47;10.20;1.00
314;DHT22;143;51.634;7.112;2024-02-04T10:06:13;10.00;1.00
314;DHT22;143;51.634;7.112;2024-02-04T10:08:38;10.20;1.00
314;DHT22;143;51.634;7.112;2024-02-04T10:11:04;10.10;1.00
314;DHT22;143;51.634;7.112;2024-02-04T10:13:29;10.10;1.00
314;DHT22;143;51.634;7.112;2024-02-04T10:15:55;10.10;1.00
314;DHT22;143;51.634;7.112;2024-02-04T10:18:21;10.30;1.00
314;DHT22;143;51.634;7.112;2024-02-04T10:20:47;10.40;1.00
314;DHT22;143;51.634;7.112;2024-02-04T10:23:13;10.30;1.00
314;DHT22;143;51.634;7.112;2024-02-04T10:25:39;10.10;1.00
314;DHT22;143;51.634;7.112;2024-02-04T10:28:05;10.30;1.00
314;DHT22;143;51.634;7.112;2024-02-04T10:30:30;10.20;1.00
314;DHT22;143;51.634;7.112;2024-02-04T10:32:56;10.20;1.00
314;DHT22;143;51.634;7.112;2024-02-04T10:35:22;10.30;1.00
314;DHT22;143;51.634;7.112;2024-02-04T10:37:52;10.20;1.00
314;DHT22;143;51.634;7.112;2024-02-04T10:40:18;10.20;1.00
314;DHT22;143;51.634;7.112;2024-02-04T10:42:44;10.20;1.00
314;DHT22;143;51.634;7.112;2024-02-04T10:45:10;10.30;1.00
314;DHT22;143;51.634;7.112;2024-02-04T10:47:40;10.40;1.00
314;DHT22;143;51.634;7.112;2024-02-04T10:50:08;10.20;1.00
314;DHT22;143;51.634;7.112;2024-02-04T10:52:40;10.20;1.00
314;DHT22;143;51.634;7.112;2024-02-04T10:55:09;10.40;1.00
314;DHT22;143;51.634;7.112;2024-02-04T10:57:36;10.50;1.00
314;DHT22;143;51.634;7.112;2024-02-04T11:00:03;10.50;1.00
314;DHT22;143;51.634;7.112;2024-02-04T11:02:34;10.40;1.00
314;DHT22;143;51.634;7.112;2024-02-04T11:05:00;10.60;1.00
314;DHT22;143;51.634;7.112;2024-02-04T11:07:29;10.70;1.00
314;DHT22;143;51.634;7.112;2024-02-04T11:09:57;10.70;1.00
314;DHT22;143;51.634;7.112;2024-02-04T11:12:23;10.80;1.00
314;DHT22;143;51.634;7.112;2024-02-04T11:14:54;10.80;1.00
314;DHT22;143;51.634;7.112;2024-02-04T11:20:22;10.80;1.00
314;DHT22;143;51.634;7.112;2024-02-04T11:23:10;10.90;1.00
314;DHT22;143;51.634;7.112;2024-02-04T11:25:50;11.00;1.00
314;DHT22;143;51.634;7.112;2024-02-04T11:28:16;11.00;1.00
314;DHT22;143;51.634;7.112;2024-02-04T11:30:43;11.10;1.00
314;DHT22;143;51.634;7.112;2024-02-04T11:33:11;11.10;1.00
314;DHT22;143;51.634;7.112;2024-02-04T11:35:37;11.00;1.00
314;DHT22;143;51.634;7.112;2024-02-04T11:38:05;11.20;1.00
314;DHT22;143;51.634;7.112;2024-02-04T11:40:35;11.10;1.00
314;DHT22;143;51.634;7.112;2024-02-04T11:43:11;11.30;1.00
314;DHT22;143;51.634;7.112;2024-02-04T11:45:37;11.20;1.00
314;DHT22;143;51.634;7.112;2024-02-04T11:48:07;11.30;1.00
314;DHT22;143;51.634;7.112;2024-02-04T11:50:33;11.30;1.00
314;DHT22;143;51.634;7.112;2024-02-04T11:53:08;11.30;1.00
314;DHT22;143;51.634;7.112;2024-02-04T11:55:35;11.40;1.00
314;DHT22;143;51.634;7.112;2024-02-04T11:58:05;11.40;1.00
314;DHT22;143;51.634;7.112;2024-02-04T12:00:34;11.40;1.00
314;DHT22;143;51.634;7.112;2024-02-04T12:03:04;11.30;1.00
314;DHT22;143;51.634;7.112;2024-02-04T12:05:34;11.30;1.00
314;DHT22;143;51.634;7.112;2024-02-04T12:08:05;11.30;1.00
314;DHT22;143;51.634;7.112;2024-02-04T12:10:32;11.30;1.00
314;DHT22;143;51.634;7.112;2024-02-04T12:13:05;11.30;1.00
314;DHT22;143;51.634;7.112;2024-02-04T12:15:35;11.30;1.00
314;DHT22;143;51.634;7.112;2024-02-04T12:18:08;11.30;1.00
314;DHT22;143;51.634;7.112;2024-02-04T12:20:34;11.30;1.00
314;DHT22;143;51.634;7.112;2024-02-04T12:23:01;11.30;1.00
314;DHT22;143;51.634;7.112;2024-02-04T12:25:27;11.40;1.00
314;DHT22;143;51.634;7.112;2024-02-04T12:27:55;11.30;1.00
314;DHT22;143;51.634;7.112;2024-02-04T12:30:20;11.20;1.00
314;DHT22;143;51.634;7.112;2024-02-04T12:32:56;11.20;1.00
314;DHT22;143;51.634;7.112;2024-02-04T12:35:22;11.20;1.00
314;DHT22;143;51.634;7.112;2024-02-04T12:37:54;11.20;1.00
314;DHT22;143;51.634;7.112;2024-02-04T12:40:28;11.40;1.00
314;DHT22;143;51.634;7.112;2024-02-04T12:43:01;11.30;1.00
314;DHT22;143;51.634;7.112;2024-02-04T12:45:28;11.30;1.00
314;DHT22;143;51.634;7.112;2024-02-04T12:47:55;11.20;1.00
314;DHT22;143;51.634;7.112;2024-02-04T12:50:22;11.20;1.00
314;DHT22;143;51.634;7.112;2024-02-04T12:52:49;11.10;1.00
314;DHT22;143;51.634;7.112;2024-02-04T12:55:25;11.20;1.00
314;DHT22;143;51.634;7.112;2024-02-04T12:58:08;11.10;1.00
314;DHT22;143;51.634;7.112;2024-02-04T13:00:35;11.20;1.00
314;DHT22;143;51.634;7.112;2024-02-04T13:03:02;11.00;1.00
314;DHT22;143;51.634;7.112;2024-02-04T13:05:28;10.90;1.00
314;DHT22;143;51.634;7.112;2024-02-04T13:07:59;10.90;1.00
314;DHT22;143;51.634;7.112;2024-02-04T13:10:28;10.90;1.00
314;DHT22;143;51.634;7.112;2024-02-04T13:15:30;11.10;1.00
314;DHT22;143;51.634;7.112;2024-02-04T13:17:56;10.90;1.00
314;DHT22;143;51.634;7.112;2024-02-04T13:20:22;11.10;1.00
314;DHT22;143;51.634;7.112;2024-02-04T13:22:48;10.90;1.00
314;DHT22;143;51.634;7.112;2024-02-04T13:25:14;10.90;1.00
314;DHT22;143;51.634;7.112;2024-02-04T13:27:40;11.10;1.00
314;DHT22;143;51.634;7.112;2024-02-04T13:30:07;11.00;1.00
314;DHT22;143;51.634;7.112;2024-02-04T13:32:38;11.00;1.00
314;DHT22;143;51.634;7.112;2024-02-04T13:35:04;11.00;1.00
314;DHT22;143;51.634;7.112;2024-02-04T13:37:31;11.00;1.00
314;DHT22;143;51.634;7.112;2024-02-04T13:39:56;11.00;1.00
314;DHT22;143;51.634;7.112;2024-02-04T13:42:22;11.00;1.00
314;DHT22;143;51.634;7.112;2024-02-04T13:44:48;11.00;1.00
314;DHT22;143;51.634;7.112;2024-02-04T13:47:14;11.00;1.00
314;DHT22;143;51.634;7.112;2024-02-04T13:49:39;11.00;1.00
314;DHT22;143;51.634;7.112;2024-02-04T13:52:05;11.00;1.00
314;DHT22;143;51.634;7.112;2024-02-04T13:54:31;11.00;1.00
314;DHT22;143;51.634;7.112;2024-02-04T13:56:56;11.00;1.00
314;DHT22;143;51.634;7.112;2024-02-04T13:59:22;11.00;1.00
314;DHT22;143;51.634;7.112;2024-02-04T14:01:47;11.00;1.00
314;DHT22;143;51.634;7.112;2024-02-04T14:04:13;11.00;1.00
314;DHT22;143;51.634;7.112;2024-02-04T14:06:38;11.00;1.00
314;DHT22;143;51.634;7.112;2024-02-04T14:09:04;11.20;1.00
314;DHT22;143;51.634;7.112;2024-02-04T14:11:30;10.90;1.00
314;DHT22;143;51.634;7.112;2024-02-04T14:13:56;11.10;1.00
314;DHT22;143;51.634;7.112;2024-02-04T14:16:21;11.00;1.00
314;DHT22;143;51.634;7.112;2024-02-04T14:18:47;10.90;1.00
314;DHT22;143;51.634;7.112;2024-02-04T14:21:12;10.90;1.00
314;DHT22;143;51.634;7.112;2024-02-04T14:23:41;11.00;1.00
314;DHT22;143;51.634;7.112;2024-02-04T14:26:06;11.00;1.00
314;DHT22;143;51.634;7.112;2024-02-04T14:28:33;11.00;1.00
314;DHT22;143;51.634;7.112;2024-02-04T14:31:06;11.00;1.00
314;DHT22;143;51.634;7.112;2024-02-04T14:33:32;11.20;1.00
314;DHT22;143;51.634;7.112;2024-02-04T14:35:58;11.00;1.00
314;DHT22;143;51.634;7.112;2024-02-04T14:38:25;10.90;1.00
314;DHT22;143;51.634;7.112;2024-02-04T14:40:50;11.10;1.00
314;DHT22;143;51.634;7.112;2024-02-04T14:43:16;10.90;1.00
314;DHT22;143;51.634;7.112;2024-02-04T14:45:43;10.90;1.00
314;DHT22;143;51.634;7.112;2024-02-04T14:48:09;10.80;1.00
314;DHT22;143;51.634;7.112;2024-02-04T14:50:35;10.90;1.00
314;DHT22;143;51.634;7.112;2024-02-04T14:53:01;10.80;1.00
314;DHT22;143;51.634;7.112;2024-02-04T14:55:27;10.90;1.00
314;DHT22;143;51.634;7.112;2024-02-04T14:57:52;10.80;1.00
314;DHT22;143;51.634;7.112;2024-02-04T15:00:18;10.80;1.00
314;DHT22;143;51.634;7.112;2024-02-04T15:02:46;10.80;1.00
314;DHT22;143;51.634;7.112;2024-02-04T15:05:11;10.80;1.00
314;DHT22;143;51.634;7.112;2024-02-04T15:07:37;10.80;1.00
314;DHT22;143;51.634;7.112;2024-02-04T15:10:03;10.80;1.00
314;DHT22;143;51.634;7.112;2024-02-04T15:12:28;10.70;1.00
314;DHT22;143;51.634;7.112;2024-02-04T15:14:54;10.90;1.00
314;DHT22;143;51.634;7.112;2024-02-04T15:17:20;10.70;1.00
314;DHT22;143;51.634;7.112;2024-02-04T15:19:46;10.80;1.00
314;DHT22;143;51.634;7.112;2024-02-04T15:22:12;10.80;1.00
314;DHT22;143;51.634;7.112;2024-02-04T15:24:38;10.90;1.00
314;DHT22;143;51.634;7.112;2024-02-04T15:27:05;10.90;1.00
314;DHT22;143;51.634;7.112;2024-02-04T15:29:35;10.90;1.00
314;DHT22;143;51.634;7.112;2024-02-04T15:32:01;10.90;1.00
314;DHT22;143;51.634;7.112;2024-02-04T15:34:27;10.80;1.00
314;DHT22;143;51.634;7.112;2024-02-04T15:37:00;10.70;1.00
314;DHT22;143;51.634;7.112;2024-02-04T15:39:25;10.80;1.00
314;DHT22;143;51.634;7.112;2024-02-04T15:41:51;10.70;1.00
314;DHT22;143;51.634;7.112;2024-02-04T15:44:16;10.80;1.00
314;DHT22;143;51.634;7.112;2024-02-04T15:46:43;10.80;1.00
314;DHT22;143;51.634;7.112;2024-02-04T15:49:11;10.80;1.00
314;DHT22;143;51.634;7.112;2024-02-04T15:51:38;10.80;1.00
314;DHT22;143;51.634;7.112;2024-02-04T15:54:05;10.90;1.00
314;DHT22;143;51.634;7.112;2024-02-04T15:56:34;10.80;1.00
314;DHT22;143;51.634;7.112;2024-02-04T15:59:07;10.80;1.00
314;DHT22;143;51.634;7.112;2024-02-04T16:01:36;10.80;1.00
314;DHT22;143;51.634;7.112;2024-02-04T16:04:03;10.90;1.00
314;DHT22;143;51.634;7.112;2024-02-04T16:06:29;10.80;1.00
314;DHT22;143;51.634;7.112;2024-02-04T16:08:55;10.90;1.00
314;DHT22;143;51.634;7.112;2024-02-04T16:11:24;10.90;1.00
314;DHT22;143;51.634;7.112;2024-02-04T16:13:51;10.90;1.00
314;DHT22;143;51.634;7.112;2024-02-04T16:16:22;10.90;1.00
314;DHT22;143;51.634;7.112;2024-02-04T16:18:53;10.90;1.00
314;DHT22;143;51.634;7.112;2024-02-04T16:21:19;10.90;1.00
314;DHT22;143;51.634;7.112;2024-02-04T16:23:44;10.90;1.00
314;DHT22;143;51.634;7.112;2024-02-04T16:26:10;10.90;1.00
314;DHT22;143;51.634;7.112;2024-02-04T16:28:36;10.90;1.00
314;DHT22;143;51.634;7.112;2024-02-04T16:31:04;10.90;1.00
314;DHT22;143;51.634;7.112;2024-02-04T16:33:29;10.90;1.00
314;DHT22;143;51.634;7.112;2024-02-04T16:35:55;11.20;1.00
314;DHT22;143;51.634;7.112;2024-02-04T16:38:20;11.00;1.00
314;DHT22;143;51.634;7.112;2024-02-04T16:40:46;10.90;1.00
314;DHT22;143;51.634;7.112;2024-02-04T16:43:12;10.80;1.00
314;DHT22;143;51.634;7.112;2024-02-04T16:45:37;10.90;1.00
314;DHT22;143;51.634;7.112;2024-02-04T16:48:05;10.90;1.00
314;DHT22;143;51.634;7.112;2024-02-04T16:50:30;10.80;1.00
314;DHT22;143;51.634;7.112;2024-02-04T16:52:56;10.90;1.00
314;DHT22;143;51.634;7.112;2024-02-04T16:55:22;10.90;1.00
314;DHT22;143;51.634;7.112;2024-02-04T16:57:47;10.90;1.00